Historie AUP a zpráv METAR Praha-Ruzyně z 12:00 UTC

Datum: 14-03-2018 / Vyber datum:
LKPR 141200Z 30006KT 9999 SCT028 BKN048 05/01 Q1011 NOSIG
Prostor Spodní hranice Horní hranice Od Do
TRA13 GND 5000FT/AMSL 09:00 22:00
TRA56 1000FT/AGL F125 08:00 22:00
TRA57 3000FT/AMSL F125 08:00 22:00
TRA6 GND F095 08:00 11:00
TRA61 GND 3000FT/AMSL 14:00 16:00
TRA62 3000FT/AMSL F245 08:00 14:00
TRA71 GND 1000FT/AGL 08:00 17:03
TRA73 GND 1000FT/AGL 08:00 17:03
TRA76 1000FT/AGL F075 08:00 16:00
TRA77 1000FT/AGL F245 08:00 16:00
TRA78 1000FT/AGL F245 08:00 16:00
TRA79 F075 F245 08:00 16:00
TSA1 GND F125 08:00 09:00
TSA2A GND F125 07:00 21:10
TSA2B GND F125 08:00 19:10
TSA20 300FT/AGL 1000FT/AGL 08:00 16:00
TSA26 300FT/AGL 1000FT/AGL 08:00 16:00
TSA27 300FT/AGL 1000FT/AGL 08:00 16:00
TSA3A GND F285 08:00 16:30
TSA5B GND F135 08:00 21:00